createdAt,value
2022-10-29T00:01:01.282Z,12.00
2022-10-29T00:01:41.472Z,11.90
2022-10-29T00:02:21.389Z,11.51
2022-10-29T00:03:01.334Z,14.11
2022-10-29T00:03:43.180Z,13.10
2022-10-29T00:04:30.206Z,11.88
2022-10-29T00:05:24.188Z,11.65
2022-10-29T00:06:25.195Z,11.68
2022-10-29T00:07:19.197Z,12.48
2022-10-29T00:08:14.201Z,14.18
2022-10-29T00:09:08.193Z,12.74
2022-10-29T00:09:55.224Z,11.81
2022-10-29T00:10:29.232Z,11.93
2022-10-29T00:11:19.169Z,12.19
2022-10-29T00:11:53.265Z,12.80
2022-10-29T00:12:40.164Z,14.40
2022-10-29T00:13:14.251Z,13.44
2022-10-29T00:14:07.193Z,12.79
2022-10-29T00:14:41.242Z,11.64
2022-10-29T00:15:22.248Z,12.88
2022-10-29T00:16:02.236Z,12.59
2022-10-29T00:16:45.201Z,12.10
2022-10-29T00:17:25.249Z,10.93
2022-10-29T00:18:05.164Z,11.88
2022-10-29T00:18:45.261Z,12.06
2022-10-29T00:19:25.205Z,12.54
2022-10-29T00:20:05.344Z,13.59
2022-10-29T00:20:45.208Z,13.79
2022-10-29T00:21:28.258Z,13.38
2022-10-29T00:22:09.163Z,11.79
2022-10-29T00:22:49.267Z,12.36
2022-10-29T00:23:29.142Z,12.34
2022-10-29T00:24:09.269Z,12.07
2022-10-29T00:24:49.147Z,11.79
2022-10-29T00:25:29.280Z,12.65
2022-10-29T00:26:10.218Z,12.51
2022-10-29T00:26:50.458Z,12.69
2022-10-29T00:27:31.169Z,12.85
2022-10-29T00:28:11.309Z,12.27
2022-10-29T00:28:52.179Z,12.39
2022-10-29T00:29:32.218Z,12.49
2022-10-29T00:30:13.156Z,11.32
2022-10-29T00:30:53.268Z,12.40
2022-10-29T00:31:33.216Z,14.29
2022-10-29T00:32:13.323Z,13.38
2022-10-29T00:32:54.438Z,10.26
2022-10-29T00:33:35.234Z,10.03
2022-10-29T00:34:16.154Z,10.63
2022-10-29T00:34:56.254Z,11.41
2022-10-29T00:35:36.142Z,11.63
2022-10-29T00:36:22.060Z,11.39
2022-10-29T00:37:02.245Z,10.52
2022-10-29T00:37:42.291Z,11.18
2022-10-29T00:38:23.167Z,9.82
2022-10-29T00:39:04.422Z,10.68
2022-10-29T00:39:44.163Z,11.64
2022-10-29T00:40:24.272Z,9.46
2022-10-29T00:41:05.187Z,11.09
2022-10-29T00:41:45.263Z,11.98
2022-10-29T00:42:26.188Z,11.82
2022-10-29T00:43:23.276Z,12.40
2022-10-29T00:44:22.165Z,11.94
2022-10-29T00:45:02.239Z,11.59
2022-10-29T00:45:42.192Z,11.51
2022-10-29T00:46:28.281Z,12.09
2022-10-29T00:47:29.251Z,9.57
2022-10-29T00:48:09.273Z,10.15
2022-10-29T00:48:53.132Z,10.07
2022-10-29T00:49:33.242Z,10.38
2022-10-29T00:50:17.120Z,10.70
2022-10-29T00:50:58.238Z,10.16
2022-10-29T00:51:39.139Z,9.25
2022-10-29T00:52:19.300Z,10.10
2022-10-29T00:53:01.167Z,10.74
2022-10-29T00:53:45.266Z,12.26
2022-10-29T00:54:26.124Z,11.09
2022-10-29T00:55:09.196Z,11.61
2022-10-29T00:55:50.121Z,10.68
2022-10-29T00:56:32.235Z,9.35
2022-10-29T00:57:19.133Z,9.84
2022-10-29T00:58:00.859Z,9.84
2022-10-29T00:58:42.175Z,9.80
2022-10-29T00:59:23.218Z,9.95
2022-10-29T01:00:04.138Z,10.35
2022-10-29T01:00:58.147Z,10.74
2022-10-29T01:01:53.263Z,11.06
2022-10-29T01:02:49.184Z,11.41
2022-10-29T01:03:43.161Z,10.84
2022-10-29T01:04:38.116Z,11.77
2022-10-29T01:05:37.158Z,11.51
2022-10-29T01:06:31.148Z,11.81
2022-10-29T01:07:26.150Z,12.45
2022-10-29T01:08:20.136Z,10.06
2022-10-29T01:09:07.143Z,11.04
2022-10-29T01:09:41.277Z,12.29
2022-10-29T01:10:47.119Z,11.96
2022-10-29T01:11:55.236Z,10.43
2022-10-29T01:13:01.123Z,9.73
2022-10-29T01:13:56.271Z,12.15
2022-10-29T01:14:43.148Z,11.95
2022-10-29T01:16:01.209Z,10.65
2022-10-29T01:17:13.116Z,10.38
2022-10-29T01:18:28.202Z,11.45
2022-10-29T01:19:37.131Z,11.85
2022-10-29T01:20:41.152Z,11.73
2022-10-29T01:21:44.227Z,11.29
2022-10-29T01:23:16.090Z,11.99
2022-10-29T01:24:17.163Z,13.10
2022-10-29T01:25:48.148Z,13.11
2022-10-29T01:26:55.195Z,12.25
2022-10-29T01:27:54.306Z,11.35
2022-10-29T01:28:49.178Z,11.23
2022-10-29T01:29:56.101Z,11.00
2022-10-29T01:30:44.153Z,10.19
2022-10-29T01:31:41.157Z,11.75
2022-10-29T01:32:25.177Z,13.01
2022-10-29T01:33:14.139Z,11.32
2022-10-29T01:34:21.231Z,10.85
2022-10-29T01:35:32.099Z,11.64
2022-10-29T01:36:48.160Z,12.96
2022-10-29T01:38:06.100Z,12.76
2022-10-29T01:39:10.240Z,10.29
2022-10-29T01:40:29.099Z,11.63
2022-10-29T01:41:43.147Z,10.89
2022-10-29T01:42:41.174Z,9.06
2022-10-29T01:43:33.148Z,11.54
2022-10-29T01:44:59.094Z,11.96
2022-10-29T01:46:13.155Z,10.68
2022-10-29T01:46:59.070Z,11.49
2022-10-29T01:47:56.455Z,10.40
2022-10-29T01:48:55.079Z,10.91
2022-10-29T01:49:53.069Z,10.89
2022-10-29T01:50:48.091Z,11.05
2022-10-29T01:51:45.105Z,11.38
2022-10-29T01:52:42.083Z,9.82
2022-10-29T01:53:23.105Z,10.30
2022-10-29T01:54:06.161Z,11.76
2022-10-29T01:54:50.074Z,11.80
2022-10-29T01:55:38.149Z,11.41
2022-10-29T01:56:18.072Z,10.80
2022-10-29T01:57:03.163Z,10.06
2022-10-29T01:57:45.087Z,10.31
2022-10-29T01:58:32.124Z,10.27
2022-10-29T01:59:36.233Z,10.01
2022-10-29T02:00:37.144Z,10.75
2022-10-29T02:01:53.105Z,10.25
2022-10-29T02:03:38.113Z,10.51
2022-10-29T02:04:50.082Z,10.98
2022-10-29T02:05:57.065Z,10.16
2022-10-29T02:07:01.068Z,9.89
2022-10-29T02:08:14.067Z,11.00
2022-10-29T02:09:34.088Z,9.39
2022-10-29T02:10:16.148Z,9.74
2022-10-29T02:11:25.075Z,9.93
2022-10-29T02:12:17.174Z,9.55
2022-10-29T02:13:04.067Z,11.05
2022-10-29T02:13:44.152Z,9.74
2022-10-29T02:14:45.092Z,10.04
2022-10-29T02:15:44.111Z,10.90
2022-10-29T02:16:32.071Z,11.00
2022-10-29T02:17:15.272Z,11.16
2022-10-29T02:18:12.074Z,11.94
2022-10-29T02:18:51.212Z,13.39
2022-10-29T02:19:40.059Z,12.80
2022-10-29T02:20:25.081Z,11.56
2022-10-29T02:21:20.048Z,10.57
2022-10-29T02:22:14.059Z,12.11
2022-10-29T02:23:08.057Z,10.65
2022-10-29T02:24:02.063Z,9.81
2022-10-29T02:24:56.172Z,11.15
2022-10-29T02:25:43.134Z,9.70
2022-10-29T02:26:17.156Z,10.79
2022-10-29T02:27:04.045Z,10.80
2022-10-29T02:27:38.132Z,11.84
2022-10-29T02:28:25.029Z,11.64
2022-10-29T02:28:59.178Z,11.76
2022-10-29T02:29:46.072Z,12.69
2022-10-29T02:30:20.135Z,11.38
2022-10-29T02:31:07.115Z,10.60
2022-10-29T02:31:41.109Z,10.35
2022-10-29T02:32:28.039Z,10.74
2022-10-29T02:33:02.130Z,11.04
2022-10-29T02:33:49.047Z,11.41
2022-10-29T02:34:23.112Z,11.59
2022-10-29T02:35:11.039Z,11.35
2022-10-29T02:35:45.097Z,11.89
2022-10-29T02:36:32.077Z,11.13
2022-10-29T02:37:06.154Z,10.86
2022-10-29T02:37:54.059Z,10.43
2022-10-29T02:38:28.135Z,10.86
2022-10-29T02:39:15.036Z,12.45
2022-10-29T02:39:49.112Z,12.54
2022-10-29T02:40:36.036Z,13.10
2022-10-29T02:41:10.098Z,13.04
2022-10-29T02:41:57.052Z,11.30
2022-10-29T02:42:31.176Z,12.95
2022-10-29T02:43:52.123Z,12.49
2022-10-29T02:44:39.048Z,12.70
2022-10-29T02:45:13.103Z,13.02
2022-10-29T02:46:20.055Z,12.90
2022-10-29T02:46:54.093Z,13.68
2022-10-29T02:47:35.116Z,15.29
2022-10-29T02:48:15.081Z,13.44
2022-10-29T02:48:56.031Z,12.51
2022-10-29T02:49:36.117Z,13.26
2022-10-29T02:50:17.031Z,13.77
2022-10-29T02:50:58.900Z,14.31
2022-10-29T02:51:40.056Z,14.38
2022-10-29T02:52:20.144Z,13.68
2022-10-29T02:53:00.054Z,13.02
2022-10-29T02:53:40.129Z,13.30
2022-10-29T02:54:21.019Z,13.15
2022-10-29T02:55:01.112Z,13.24
2022-10-29T02:55:41.054Z,13.34
2022-10-29T02:56:21.105Z,13.50
2022-10-29T02:57:01.030Z,13.70
2022-10-29T02:57:41.093Z,13.86
2022-10-29T02:59:03.407Z,12.90
2022-10-29T02:59:46.017Z,13.13
2022-10-29T03:00:26.107Z,12.20
2022-10-29T03:01:07.041Z,12.46
2022-10-29T03:01:47.201Z,14.25
2022-10-29T03:02:27.124Z,13.98
2022-10-29T03:03:07.111Z,12.27
2022-10-29T03:03:47.034Z,11.99
2022-10-29T03:04:27.116Z,12.94
2022-10-29T03:05:08.008Z,12.64
2022-10-29T03:05:49.289Z,12.70
2022-10-29T03:06:29.007Z,12.20
2022-10-29T03:07:09.092Z,11.44
2022-10-29T03:07:48.993Z,11.70
2022-10-29T03:08:29.126Z,11.68
2022-10-29T03:09:10.053Z,13.35
2022-10-29T03:09:50.097Z,11.07
2022-10-29T03:10:31.012Z,12.10
2022-10-29T03:11:11.095Z,12.96
2022-10-29T03:11:51.012Z,12.23
2022-10-29T03:12:31.074Z,10.14
2022-10-29T03:13:12.012Z,12.56
2022-10-29T03:13:52.069Z,13.35
2022-10-29T03:14:32.020Z,11.74
2022-10-29T03:15:13.149Z,11.31
2022-10-29T03:15:54.015Z,11.36
2022-10-29T03:16:34.124Z,9.54
2022-10-29T03:17:14.016Z,11.01
2022-10-29T03:17:54.603Z,11.46
2022-10-29T03:18:34.991Z,10.04
2022-10-29T03:19:15.124Z,10.90
2022-10-29T03:19:56.029Z,10.51
2022-10-29T03:20:36.085Z,11.45
2022-10-29T03:21:16.999Z,10.98
2022-10-29T03:21:57.084Z,11.55
2022-10-29T03:22:37.014Z,11.73
2022-10-29T03:23:17.142Z,10.29
2022-10-29T03:23:57.002Z,10.39
2022-10-29T03:24:37.077Z,11.09
2022-10-29T03:25:17.024Z,11.90
2022-10-29T03:26:01.084Z,11.49
2022-10-29T03:26:41.989Z,9.15
2022-10-29T03:27:22.070Z,9.70
2022-10-29T03:28:02.016Z,10.16
2022-10-29T03:28:42.131Z,10.26
2022-10-29T03:29:21.998Z,10.16
2022-10-29T03:30:02.089Z,11.44
2022-10-29T03:30:42.025Z,11.24
2022-10-29T03:31:22.057Z,11.49
2022-10-29T03:32:02.976Z,14.18
2022-10-29T03:32:47.069Z,12.70
2022-10-29T03:33:26.975Z,12.54
2022-10-29T03:34:07.072Z,13.50
2022-10-29T03:34:47.009Z,12.63
2022-10-29T03:35:27.113Z,13.25
2022-10-29T03:36:10.075Z,15.00
2022-10-29T03:36:50.054Z,14.65
2022-10-29T03:37:30.985Z,13.01
2022-10-29T03:38:11.103Z,13.04
2022-10-29T03:38:50.985Z,14.27
2022-10-29T03:39:31.064Z,13.86
2022-10-29T03:40:12.979Z,14.35
2022-10-29T03:40:53.052Z,14.56
2022-10-29T03:41:33.019Z,14.82
2022-10-29T03:42:13.047Z,14.60
2022-10-29T03:42:54.408Z,14.80
2022-10-29T03:43:35.076Z,13.88
2022-10-29T03:44:14.979Z,12.07
2022-10-29T03:44:55.053Z,11.04
2022-10-29T03:45:35.000Z,11.94
2022-10-29T03:46:15.047Z,12.05
2022-10-29T03:46:55.019Z,11.99
2022-10-29T03:47:36.067Z,11.44
2022-10-29T03:48:16.977Z,12.31
2022-10-29T03:48:57.047Z,13.18
2022-10-29T03:49:37.985Z,14.40
2022-10-29T03:50:18.047Z,12.07
2022-10-29T03:51:09.999Z,12.09
2022-10-29T03:51:50.032Z,10.56
2022-10-29T03:52:30.063Z,9.43
2022-10-29T03:53:10.026Z,9.60
2022-10-29T03:53:49.963Z,10.91
2022-10-29T03:54:30.118Z,11.46
2022-10-29T03:55:11.976Z,9.44
2022-10-29T03:55:52.061Z,9.30
2022-10-29T03:56:31.976Z,11.00
2022-10-29T03:57:12.041Z,11.40
2022-10-29T03:57:53.115Z,11.34
2022-10-29T03:58:34.034Z,10.86
2022-10-29T03:59:14.965Z,9.32
2022-10-29T03:59:56.017Z,9.01
2022-10-29T04:00:35.987Z,10.52
2022-10-29T04:01:17.134Z,11.10
2022-10-29T04:01:57.116Z,9.18
2022-10-29T04:02:38.114Z,8.91
2022-10-29T04:03:19.012Z,10.20
2022-10-29T04:03:59.095Z,10.63
2022-10-29T04:04:38.969Z,8.99
2022-10-29T04:05:19.040Z,10.16
2022-10-29T04:05:58.948Z,11.66
2022-10-29T04:06:39.047Z,11.59
2022-10-29T04:07:18.966Z,10.29
2022-10-29T04:07:59.046Z,10.06
2022-10-29T04:08:39.996Z,10.88
2022-10-29T04:09:20.051Z,12.07
2022-10-29T04:09:59.983Z,9.99
2022-10-29T04:10:40.026Z,10.06
2022-10-29T04:11:20.964Z,11.27
2022-10-29T04:12:01.145Z,11.31
2022-10-29T04:12:40.947Z,10.06
2022-10-29T04:13:22.012Z,10.13
2022-10-29T04:14:02.998Z,12.16
2022-10-29T04:14:45.585Z,13.10
2022-10-29T04:15:25.949Z,11.00
2022-10-29T04:16:06.011Z,11.11
2022-10-29T04:16:45.944Z,10.81
2022-10-29T04:17:26.044Z,9.09
2022-10-29T04:18:05.970Z,9.65
2022-10-29T04:18:46.010Z,11.05
2022-10-29T04:19:26.971Z,11.07
2022-10-29T04:20:14.462Z,12.54
2022-10-29T04:24:12.092Z,10.21
2022-10-29T04:29:11.944Z,10.35
2022-10-29T04:29:52.007Z,11.75
2022-10-29T04:30:32.985Z,10.61
2022-10-29T04:31:15.030Z,9.70
2022-10-29T04:31:55.932Z,10.32
2022-10-29T04:32:35.995Z,9.39
2022-10-29T04:33:15.944Z,10.27
2022-10-29T04:33:56.109Z,11.31
2022-10-29T04:34:35.972Z,12.26
2022-10-29T04:35:16.024Z,9.60
2022-10-29T04:36:00.975Z,10.70
2022-10-29T04:36:41.009Z,10.18
2022-10-29T04:37:20.923Z,9.84
2022-10-29T04:38:01.004Z,9.59
2022-10-29T04:38:41.920Z,11.29
2022-10-29T04:39:23.500Z,12.05
2022-10-29T04:40:03.944Z,11.38
2022-10-29T04:40:44.008Z,10.46
2022-10-29T04:41:24.972Z,11.88
2022-10-29T04:42:04.991Z,11.54
2022-10-29T04:42:45.932Z,12.05
2022-10-29T04:43:26.983Z,10.55
2022-10-29T04:44:08.912Z,10.11
2022-10-29T04:44:49.035Z,9.79
2022-10-29T04:45:29.953Z,10.19
2022-10-29T04:46:10.014Z,10.68
2022-10-29T04:46:50.952Z,9.88
2022-10-29T04:47:31.004Z,11.04
2022-10-29T04:48:12.915Z,10.41
2022-10-29T04:48:59.433Z,9.03
2022-10-29T04:49:46.923Z,9.41
2022-10-29T04:50:29.900Z,9.00
2022-10-29T04:51:13.435Z,10.41
2022-10-29T04:52:03.947Z,9.88
2022-10-29T04:52:57.929Z,9.76
2022-10-29T04:53:53.924Z,11.84
2022-10-29T04:54:47.953Z,10.90
2022-10-29T04:55:42.925Z,11.69
2022-10-29T04:56:36.919Z,10.15
2022-10-29T04:57:24.006Z,9.98
2022-10-29T04:57:58.374Z,11.15
2022-10-29T04:58:55.906Z,12.01
2022-10-29T04:59:29.991Z,11.15
2022-10-29T05:00:22.919Z,10.20
2022-10-29T05:00:57.037Z,10.54
2022-10-29T05:01:43.907Z,11.04
2022-10-29T05:02:20.981Z,13.01
2022-10-29T05:03:01.935Z,10.94
2022-10-29T05:03:41.968Z,9.45
2022-10-29T05:04:21.896Z,11.02
2022-10-29T05:05:01.963Z,11.41
2022-10-29T05:05:47.923Z,9.57
2022-10-29T05:06:28.056Z,10.75
2022-10-29T05:07:08.939Z,10.40
2022-10-29T05:07:49.034Z,9.80
2022-10-29T05:08:29.072Z,11.16
2022-10-29T05:09:12.020Z,10.64
2022-10-29T05:09:51.905Z,10.88
2022-10-29T05:10:42.010Z,10.68
2022-10-29T05:11:21.893Z,9.75
2022-10-29T05:12:01.971Z,9.35
2022-10-29T05:12:43.198Z,10.16
2022-10-29T05:13:22.977Z,11.09
2022-10-29T05:14:02.936Z,10.34
2022-10-29T05:14:42.990Z,9.25
2022-10-29T05:15:23.911Z,9.66
2022-10-29T05:16:04.977Z,11.25
2022-10-29T05:16:45.894Z,12.60
2022-10-29T05:17:25.961Z,11.39
2022-10-29T05:18:06.893Z,10.34
2022-10-29T05:18:46.978Z,9.21
2022-10-29T05:19:26.947Z,10.68
2022-10-29T05:20:06.992Z,11.21
2022-10-29T05:20:46.902Z,12.30
2022-10-29T05:21:27.019Z,12.90
2022-10-29T05:22:33.895Z,12.16
2022-10-29T05:23:15.964Z,13.01
2022-10-29T05:23:55.903Z,13.38
2022-10-29T05:24:42.909Z,11.77
2022-10-29T05:25:36.922Z,12.65
2022-10-29T05:26:30.912Z,13.04
2022-10-29T05:27:24.893Z,13.21
2022-10-29T05:28:28.905Z,11.94
2022-10-29T05:29:22.884Z,9.82
2022-10-29T05:30:02.915Z,11.59
2022-10-29T05:30:43.883Z,11.36
2022-10-29T05:31:24.879Z,11.09
2022-10-29T05:32:07.146Z,11.73
2022-10-29T05:32:47.888Z,12.10
2022-10-29T05:33:31.051Z,12.09
2022-10-29T05:34:11.885Z,11.40
2022-10-29T05:34:52.938Z,11.52
2022-10-29T05:35:33.917Z,10.01
2022-10-29T05:36:14.057Z,11.48
2022-10-29T05:36:53.890Z,12.48
2022-10-29T05:37:33.934Z,13.18
2022-10-29T05:38:18.895Z,11.61
2022-10-29T05:38:58.963Z,11.15
2022-10-29T05:39:38.897Z,11.11
2022-10-29T05:40:18.959Z,11.48
2022-10-29T05:40:58.922Z,11.99
2022-10-29T05:41:38.953Z,11.36
2022-10-29T05:42:18.873Z,10.35
2022-10-29T05:42:59.210Z,10.51
2022-10-29T05:43:40.856Z,11.51
2022-10-29T05:44:20.933Z,11.94
2022-10-29T05:45:00.888Z,10.43
2022-10-29T05:45:42.001Z,10.52
2022-10-29T05:46:25.859Z,12.18
2022-10-29T05:47:05.956Z,11.79
2022-10-29T05:47:49.867Z,8.73
2022-10-29T05:48:32.954Z,9.44
2022-10-29T05:49:12.863Z,10.18
2022-10-29T05:49:52.925Z,11.20
2022-10-29T05:50:34.859Z,11.65
2022-10-29T05:51:14.946Z,11.68
2022-10-29T05:51:54.892Z,12.95
2022-10-29T05:52:34.975Z,13.11
2022-10-29T05:53:18.867Z,11.76
2022-10-29T05:53:58.933Z,10.41
2022-10-29T05:54:38.855Z,10.99
2022-10-29T05:55:18.935Z,13.94
2022-10-29T05:55:58.859Z,12.90
2022-10-29T05:56:38.947Z,12.54
2022-10-29T05:57:18.888Z,12.09
2022-10-29T05:58:06.958Z,10.35
2022-10-29T05:58:47.871Z,14.02
2022-10-29T05:59:32.630Z,13.14
2022-10-29T06:00:15.887Z,12.30
2022-10-29T06:00:55.951Z,9.52
2022-10-29T06:01:36.061Z,10.76
2022-10-29T06:02:49.027Z,12.75
2022-10-29T06:03:29.960Z,13.18
2022-10-29T06:04:10.835Z,12.30
2022-10-29T06:04:50.947Z,11.64
2022-10-29T06:05:31.883Z,10.74
2022-10-29T06:06:13.123Z,11.21
2022-10-29T06:06:53.963Z,10.44
2022-10-29T06:07:33.920Z,11.95
2022-10-29T06:08:13.895Z,14.44
2022-10-29T06:08:54.939Z,12.14
2022-10-29T06:09:34.848Z,11.84
2022-10-29T06:10:14.908Z,12.31
2022-10-29T06:10:54.905Z,12.82
2022-10-29T06:11:34.946Z,13.76
2022-10-29T06:12:14.889Z,12.57
2022-10-29T06:12:55.964Z,12.43
2022-10-29T06:13:41.103Z,12.14
2022-10-29T06:14:21.963Z,12.94
2022-10-29T06:15:01.876Z,14.80
2022-10-29T06:15:41.978Z,12.44
2022-10-29T06:16:21.871Z,13.26
2022-10-29T06:17:01.936Z,14.23
2022-10-29T06:17:46.876Z,13.27
2022-10-29T06:18:30.353Z,12.96
2022-10-29T06:19:10.967Z,12.90
2022-10-29T06:19:50.995Z,13.49
2022-10-29T06:20:30.893Z,15.76
2022-10-29T06:21:11.984Z,12.66
2022-10-29T06:21:54.157Z,12.00
2022-10-29T06:22:36.954Z,12.51
2022-10-29T06:23:22.902Z,12.54
2022-10-29T06:24:03.967Z,12.44
2022-10-29T06:24:43.948Z,11.63
2022-10-29T06:25:24.973Z,11.41
2022-10-29T06:26:07.856Z,16.09
2022-10-29T06:26:47.956Z,15.45
2022-10-29T06:27:27.860Z,14.35
2022-10-29T06:28:10.094Z,13.93
2022-10-29T06:28:49.868Z,14.98
2022-10-29T06:29:30.921Z,14.84
2022-10-29T06:30:12.872Z,14.86
2022-10-29T06:30:55.993Z,16.40
2022-10-29T06:31:35.878Z,14.81
2022-10-29T06:32:15.990Z,14.74
2022-10-29T06:32:56.217Z,14.70
2022-10-29T06:33:36.918Z,13.40
2022-10-29T06:34:16.858Z,11.99
2022-10-29T06:34:57.923Z,13.05
2022-10-29T06:35:37.882Z,13.34
2022-10-29T06:36:17.910Z,14.07
2022-10-29T06:36:57.862Z,14.04
2022-10-29T06:37:37.965Z,11.25
2022-10-29T06:38:17.836Z,14.77
2022-10-29T06:38:57.908Z,15.95
2022-10-29T06:39:37.863Z,12.85
2022-10-29T06:40:17.922Z,11.96
2022-10-29T06:40:59.895Z,12.61
2022-10-29T06:41:39.924Z,14.14
2022-10-29T06:42:19.853Z,13.15
2022-10-29T06:43:11.903Z,14.39
2022-10-29T06:43:51.871Z,15.66
2022-10-29T06:44:32.959Z,14.29
2022-10-29T06:45:13.855Z,15.30
2022-10-29T06:45:55.977Z,13.21
2022-10-29T06:46:35.859Z,13.98
2022-10-29T06:47:15.883Z,15.05
2022-10-29T06:47:56.121Z,13.02
2022-10-29T06:48:35.934Z,13.32
2022-10-29T06:49:15.818Z,13.26
2022-10-29T06:49:57.180Z,13.40
2022-10-29T06:50:37.926Z,12.73
2022-10-29T06:51:17.925Z,11.54
2022-10-29T06:51:58.864Z,13.40
2022-10-29T06:52:39.022Z,13.61
2022-10-29T06:53:20.830Z,14.13
2022-10-29T06:54:00.908Z,12.70
2022-10-29T06:54:40.817Z,12.24
2022-10-29T06:55:21.886Z,12.64
2022-10-29T06:56:01.815Z,12.01
2022-10-29T06:56:41.952Z,12.89
2022-10-29T06:57:21.883Z,13.96
2022-10-29T06:58:19.978Z,14.43
2022-10-29T06:58:59.821Z,14.29
2022-10-29T06:59:39.930Z,12.85
2022-10-29T07:00:19.829Z,14.34
2022-10-29T07:00:59.913Z,14.69
2022-10-29T07:01:39.911Z,15.49
2022-10-29T07:02:20.881Z,15.74
2022-10-29T07:03:00.998Z,15.46
2022-10-29T07:03:42.892Z,14.61
2022-10-29T07:04:24.845Z,14.40
2022-10-29T07:05:04.899Z,13.98
2022-10-29T07:05:44.809Z,13.26
2022-10-29T07:06:24.955Z,13.09
2022-10-29T07:07:04.822Z,13.21
2022-10-29T07:07:44.915Z,12.69
2022-10-29T07:08:24.882Z,13.38
2022-10-29T07:09:04.871Z,14.31
2022-10-29T07:09:44.856Z,12.64
2022-10-29T07:10:25.900Z,11.56
2022-10-29T07:11:05.816Z,12.81
2022-10-29T07:11:47.805Z,13.64
2022-10-29T07:12:27.786Z,13.59
2022-10-29T07:13:08.888Z,13.55
2022-10-29T07:13:49.840Z,12.61
2022-10-29T07:14:29.873Z,11.16
2022-10-29T07:15:09.797Z,11.96
2022-10-29T07:15:50.911Z,11.16
2022-10-29T07:16:30.804Z,11.07
2022-10-29T07:17:10.931Z,11.66
2022-10-29T07:18:07.806Z,12.10
2022-10-29T07:18:47.900Z,14.10
2022-10-29T07:19:27.824Z,12.48
2022-10-29T07:20:08.944Z,14.76
2022-10-29T07:20:51.811Z,15.23
2022-10-29T07:21:32.918Z,15.23
2022-10-29T07:22:12.837Z,14.38
2022-10-29T07:22:57.554Z,14.64
2022-10-29T07:23:37.866Z,13.88
2022-10-29T07:24:18.914Z,12.95
2022-10-29T07:25:01.260Z,13.54
2022-10-29T07:25:44.903Z,13.46
2022-10-29T07:26:24.792Z,13.43
2022-10-29T07:27:07.200Z,12.82
2022-10-29T07:27:47.853Z,13.79
2022-10-29T07:28:29.851Z,15.45
2022-10-29T07:29:09.803Z,14.20
2022-10-29T07:29:49.898Z,14.20
2022-10-29T07:30:30.847Z,13.69
2022-10-29T07:31:11.846Z,12.79
2022-10-29T07:31:51.776Z,14.02
2022-10-29T07:32:31.877Z,13.32
2022-10-29T07:33:11.804Z,13.94
2022-10-29T07:33:51.844Z,13.86
2022-10-29T07:34:31.766Z,14.80
2022-10-29T07:35:12.833Z,14.82
2022-10-29T07:35:53.838Z,12.51
2022-10-29T07:36:36.869Z,11.63
2022-10-29T07:37:16.789Z,12.39
2022-10-29T07:37:57.262Z,12.25
2022-10-29T07:38:37.784Z,13.44
2022-10-29T07:39:17.883Z,14.23
2022-10-29T07:39:57.770Z,13.93
2022-10-29T07:40:38.900Z,13.11
2022-10-29T07:41:18.824Z,12.63
2022-10-29T07:41:59.852Z,12.34
2022-10-29T07:42:39.804Z,12.57
2022-10-29T07:43:20.865Z,13.24
2022-10-29T07:44:00.771Z,11.91
2022-10-29T07:44:40.871Z,12.44
2022-10-29T07:45:20.789Z,13.11
2022-10-29T07:46:00.878Z,12.14
2022-10-29T07:46:40.810Z,10.82
2022-10-29T07:47:21.835Z,11.77
2022-10-29T07:48:09.763Z,12.23
2022-10-29T07:48:49.919Z,11.11
2022-10-29T07:49:30.774Z,12.81
2022-10-29T07:50:12.724Z,12.84
2022-10-29T07:50:53.771Z,10.74
2022-10-29T07:51:33.852Z,12.04
2022-10-29T07:52:20.788Z,12.66
2022-10-29T07:52:55.179Z,13.32
2022-10-29T07:53:42.744Z,12.18
2022-10-29T07:54:16.878Z,13.29
2022-10-29T07:55:03.798Z,15.36
2022-10-29T07:55:37.849Z,15.68
2022-10-29T07:56:24.807Z,13.56
2022-10-29T07:56:59.889Z,13.84
2022-10-29T07:57:40.789Z,12.54
2022-10-29T07:58:20.865Z,12.54
2022-10-29T07:59:00.764Z,11.56
2022-10-29T07:59:41.068Z,11.66
2022-10-29T08:00:21.752Z,13.26
2022-10-29T08:01:01.924Z,15.02
2022-10-29T08:01:42.972Z,14.00
2022-10-29T08:03:06.898Z,13.40
2022-10-29T08:04:03.780Z,13.61
2022-10-29T08:04:57.747Z,13.11
2022-10-29T08:05:56.762Z,15.49
2022-10-29T08:06:50.770Z,14.32
2022-10-29T08:07:44.742Z,14.59
2022-10-29T08:08:32.789Z,14.55
2022-10-29T08:09:06.864Z,12.81
2022-10-29T08:09:53.770Z,12.80
2022-10-29T08:10:28.847Z,14.65
2022-10-29T08:11:15.748Z,13.41
2022-10-29T08:11:50.053Z,12.75
2022-10-29T08:12:36.767Z,14.68
2022-10-29T08:13:12.849Z,12.14
2022-10-29T08:13:55.764Z,12.99
2022-10-29T08:14:35.865Z,13.06
2022-10-29T08:15:15.800Z,12.88
2022-10-29T08:15:55.839Z,12.71
2022-10-29T08:16:36.743Z,10.90
2022-10-29T08:17:16.821Z,11.64
2022-10-29T08:17:57.759Z,13.34
2022-10-29T08:18:37.832Z,15.34
2022-10-29T08:19:17.779Z,14.40
2022-10-29T08:19:57.790Z,14.77
2022-10-29T08:20:38.750Z,13.85
2022-10-29T08:21:18.856Z,12.10
2022-10-29T08:21:58.746Z,12.81
2022-10-29T08:22:38.824Z,13.55
2022-10-29T08:23:20.772Z,14.70
2022-10-29T08:24:00.870Z,14.69
2022-10-29T08:24:41.787Z,12.52
2022-10-29T08:25:22.856Z,13.70
2022-10-29T08:26:04.722Z,13.54
2022-10-29T08:26:44.813Z,14.39
2022-10-29T08:27:24.739Z,14.32
2022-10-29T08:28:06.850Z,13.52
2022-10-29T08:28:49.753Z,14.68
2022-10-29T08:29:29.832Z,13.64
2022-10-29T08:30:12.779Z,14.70
2022-10-29T08:30:56.835Z,14.86
2022-10-29T08:31:37.748Z,15.50
2022-10-29T08:32:17.815Z,13.85
2022-10-29T08:32:58.038Z,14.07
2022-10-29T08:33:38.818Z,12.88
2022-10-29T08:34:19.777Z,12.07
2022-10-29T08:34:59.819Z,13.21
2022-10-29T08:35:40.764Z,12.50
2022-10-29T08:36:20.823Z,12.49
2022-10-29T08:37:00.722Z,14.54
2022-10-29T08:37:40.820Z,14.80
2022-10-29T08:38:20.729Z,15.27
2022-10-29T08:39:00.843Z,13.90
2022-10-29T08:39:41.725Z,13.15
2022-10-29T08:41:23.788Z,14.81
2022-10-29T08:42:20.757Z,11.10
2022-10-29T08:43:49.749Z,12.34
2022-10-29T08:45:10.734Z,13.24
2022-10-29T08:46:07.711Z,13.18
2022-10-29T08:46:51.754Z,12.51
2022-10-29T08:47:31.833Z,13.54
2022-10-29T08:48:36.739Z,12.77
2022-10-29T08:49:27.814Z,13.29
2022-10-29T08:50:37.713Z,11.90
2022-10-29T08:51:37.879Z,13.21
2022-10-29T08:52:30.765Z,13.95
2022-10-29T08:53:22.776Z,12.51
2022-10-29T08:54:25.527Z,10.75
2022-10-29T08:55:24.791Z,11.73
2022-10-29T08:56:06.744Z,14.74
2022-10-29T08:56:56.791Z,12.82
2022-10-29T08:57:40.723Z,13.59
2022-10-29T08:58:35.772Z,13.18
2022-10-29T08:59:32.695Z,13.38
2022-10-29T09:00:25.856Z,13.27
2022-10-29T09:01:06.746Z,14.25
2022-10-29T09:01:46.886Z,12.32
2022-10-29T09:02:27.708Z,12.10
2022-10-29T09:03:08.808Z,13.81
2022-10-29T09:03:42.837Z,13.80
2022-10-29T09:04:40.705Z,13.45
2022-10-29T09:05:25.776Z,11.65
2022-10-29T09:06:38.722Z,15.80
2022-10-29T09:07:51.807Z,14.99
2022-10-29T09:08:57.753Z,13.20
2022-10-29T09:09:50.817Z,14.45
2022-10-29T09:10:47.715Z,17.89
2022-10-29T09:11:50.167Z,17.69
2022-10-29T09:13:17.701Z,18.84
2022-10-29T09:14:05.759Z,16.58
2022-10-29T09:14:55.869Z,12.41
2022-10-29T09:15:57.928Z,12.52
2022-10-29T09:16:50.798Z,12.77
2022-10-29T09:17:51.686Z,13.70
2022-10-29T09:18:50.766Z,13.16
2022-10-29T09:19:46.741Z,11.99
2022-10-29T09:20:49.843Z,12.14
2022-10-29T09:21:46.717Z,14.34
2022-10-29T09:22:34.831Z,14.19
2022-10-29T09:24:04.768Z,14.25
2022-10-29T09:25:12.722Z,12.46
2022-10-29T09:26:14.474Z,12.74
2022-10-29T09:27:14.733Z,11.88
2022-10-29T09:28:06.268Z,12.70
2022-10-29T09:29:50.728Z,13.16
2022-10-29T09:30:38.748Z,13.23
2022-10-29T09:31:21.832Z,14.64
2022-10-29T09:32:15.701Z,15.01
2022-10-29T09:33:07.424Z,14.93
2022-10-29T09:33:59.372Z,14.26
2022-10-29T09:34:37.824Z,14.07
2022-10-29T09:35:26.702Z,12.11
2022-10-29T09:36:10.851Z,11.02
2022-10-29T09:37:04.700Z,13.46
2022-10-29T09:38:04.655Z,13.26
2022-10-29T09:39:33.953Z,14.81
2022-10-29T09:40:57.771Z,14.56
2022-10-29T09:41:40.696Z,13.59
2022-10-29T09:42:26.735Z,12.41
2022-10-29T09:43:13.689Z,12.35
2022-10-29T09:44:03.615Z,12.99
2022-10-29T09:45:05.667Z,14.91
2022-10-29T09:46:52.726Z,14.94
2022-10-29T09:48:20.681Z,14.96
2022-10-29T09:49:46.682Z,13.32
2022-10-29T09:51:06.665Z,14.06
2022-10-29T09:52:40.705Z,12.66
2022-10-29T09:53:34.696Z,12.50
2022-10-29T09:54:28.711Z,14.81
2022-10-29T09:55:47.692Z,13.01
2022-10-29T09:56:41.658Z,12.17